Time;durP1;ratioP1;P1;durP2;ratioP2;P2;SDS_P1;SDS_P2;PMS_P1;PMS_P2;Temp;Humidity;BMP_temperature;BMP_pressure;BME280_temperature;BME280_humidity;BME280_pressure;Samples;Min_cycle;Max_cycle;Signal;HPM_P1;HPM_P2
2022/11/09 00:02:17;;;;;;;4.73;2.23;;;11.10;99.90;;;;;;5092950;28;20690;-72
2022/11/09 00:04:43;;;;;;;3.13;2.03;;;11.10;99.90;;;;;;5088568;28;20173;-72
2022/11/09 00:07:09;;;;;;;4.53;1.80;;;11.10;99.90;;;;;;5093489;28;20173;-72
2022/11/09 00:09:34;;;;;;;2.13;1.27;;;11.10;99.90;;;;;;5093084;28;20168;-72
2022/11/09 00:12:03;;;;;;;3.40;1.53;;;11.10;99.90;;;;;;5093179;28;20210;-72
2022/11/09 00:14:29;;;;;;;2.60;1.53;;;11.10;99.90;;;;;;5089795;28;20185;-72
2022/11/09 00:16:56;;;;;;;3.43;1.60;;;11.10;99.90;;;;;;5073043;28;20423;-72
2022/11/09 00:19:22;;;;;;;4.03;2.33;;;11.00;99.90;;;;;;5074062;28;20444;-72
2022/11/09 00:21:47;;;;;;;3.10;1.27;;;11.00;99.90;;;;;;5082384;28;20831;-72
2022/11/09 00:24:13;;;;;;;3.20;1.57;;;11.00;99.90;;;;;;5093049;28;20441;-72
2022/11/09 00:26:39;;;;;;;4.10;1.60;;;11.00;99.90;;;;;;5083726;28;20242;-72
2022/11/09 00:29:04;;;;;;;2.20;1.27;;;11.10;99.90;;;;;;5075238;28;20196;-72
2022/11/09 00:31:30;;;;;;;3.60;1.43;;;11.10;99.90;;;;;;5092825;28;20184;-71
2022/11/09 00:33:56;;;;;;;3.40;1.57;;;11.10;99.90;;;;;;5092704;28;20200;-71
2022/11/09 00:36:24;;;;;;;3.00;1.37;;;11.10;99.90;;;;;;5082114;28;20268;-71
2022/11/09 00:38:52;;;;;;;3.20;1.37;;;11.10;99.90;;;;;;5088761;28;20426;-71
2022/11/09 00:41:18;;;;;;;4.80;1.87;;;11.30;99.90;;;;;;5083221;28;20453;-72
2022/11/09 00:43:45;;;;;;;3.70;2.30;;;11.20;99.90;;;;;;5089660;28;20914;-72
2022/11/09 00:46:11;;;;;;;2.13;1.33;;;11.20;99.90;;;;;;5091435;28;20471;-72
2022/11/09 00:48:36;;;;;;;2.63;1.23;;;11.30;99.90;;;;;;5089606;28;20875;-72
2022/11/09 00:51:02;;;;;;;1.63;0.77;;;11.30;99.90;;;;;;5092395;28;20192;-72
2022/11/09 00:53:29;;;;;;;6.80;1.53;;;11.30;99.90;;;;;;5079148;28;20184;-72
2022/11/09 00:55:57;;;;;;;3.93;1.23;;;11.30;99.90;;;;;;5089580;28;20458;-72
2022/11/09 00:58:25;;;;;;;2.10;1.20;;;11.40;99.90;;;;;;5078047;28;20422;-72
2022/11/09 01:00:51;;;;;;;9.10;1.30;;;11.40;99.90;;;;;;5092351;28;20505;-72
2022/11/09 01:03:17;;;;;;;1.60;1.10;;;11.30;99.90;;;;;;5091944;28;20418;-72
2022/11/09 01:05:42;;;;;;;2.53;1.47;;;11.40;99.90;;;;;;5081248;28;20545;-72
2022/11/09 01:08:08;;;;;;;1.80;1.03;;;11.40;99.90;;;;;;5089602;28;20270;-72
2022/11/09 01:10:34;;;;;;;1.70;0.73;;;11.50;99.90;;;;;;5081699;28;20192;-72
2022/11/09 01:12:59;;;;;;;5.10;1.30;;;11.40;99.90;;;;;;5088684;28;20188;-72
2022/11/09 01:15:25;;;;;;;2.80;1.00;;;11.40;99.90;;;;;;5081464;28;20217;-72
2022/11/09 01:17:51;;;;;;;17.53;1.10;;;11.40;99.90;;;;;;5089446;28;20184;-72
2022/11/09 01:20:17;;;;;;;1.87;1.03;;;11.50;99.90;;;;;;5089779;28;20578;-72
2022/11/09 01:22:42;;;;;;;3.90;1.00;;;11.50;99.90;;;;;;5087994;28;20260;-72
2022/11/09 01:25:08;;;;;;;2.33;1.43;;;11.50;99.90;;;;;;5071730;28;20518;-72
2022/11/09 01:27:35;;;;;;;5.17;1.60;;;11.50;99.90;;;;;;5071999;28;20193;-72
2022/11/09 01:30:01;;;;;;;4.20;1.57;;;11.60;99.90;;;;;;5082138;28;20434;-72
2022/11/09 01:32:30;;;;;;;2.73;1.10;;;11.70;99.90;;;;;;5088039;28;20423;-72
2022/11/09 01:34:56;;;;;;;5.10;1.47;;;11.70;99.90;;;;;;5071131;28;20277;-72
2022/11/09 01:37:22;;;;;;;2.73;1.53;;;11.70;99.90;;;;;;5074414;28;20422;-72
2022/11/09 01:39:47;;;;;;;2.90;1.10;;;11.70;99.90;;;;;;5091448;28;20260;-72
2022/11/09 01:42:14;;;;;;;4.40;1.57;;;11.70;99.90;;;;;;5091307;28;20647;-72
2022/11/09 01:44:40;;;;;;;4.70;1.33;;;11.70;99.90;;;;;;5082907;28;20180;-72
2022/11/09 01:47:11;;;;;;;3.10;1.17;;;11.80;99.90;;;;;;5087163;28;20884;-72
2022/11/09 01:49:48;;;;;;;2.80;1.43;;;11.80;99.90;;;;;;5086727;28;20191;-72
2022/11/09 01:52:24;;;;;;;3.70;1.47;;;11.80;99.90;;;;;;5097765;28;20429;-71
2022/11/09 01:54:56;;;;;;;3.10;1.47;;;11.80;99.90;;;;;;5092925;28;20965;-72
2022/11/09 01:57:26;;;;;;;12.60;1.60;;;11.80;99.90;;;;;;5089640;28;20931;-72
2022/11/09 02:00:00;;;;;;;2.73;1.00;;;11.90;99.90;;;;;;5084101;28;20463;-72
2022/11/09 02:02:25;;;;;;;2.43;1.20;;;11.80;99.90;;;;;;5087008;28;20423;-72
2022/11/09 02:04:56;;;;;;;3.33;1.23;;;11.90;99.90;;;;;;5076560;28;20430;-72
2022/11/09 02:07:23;;;;;;;7.43;1.60;;;11.90;99.90;;;;;;5078262;28;20192;-72
2022/11/09 02:10:00;;;;;;;2.93;1.93;;;11.90;99.90;;;;;;5095830;28;20509;-72
2022/11/09 02:12:28;;;;;;;3.70;1.53;;;12.00;99.90;;;;;;5097766;28;20418;-72
2022/11/09 02:14:55;;;;;;;3.10;1.70;;;12.00;99.90;;;;;;5098022;28;20556;-71
2022/11/09 02:17:21;;;;;;;3.40;1.43;;;12.00;99.90;;;;;;5097927;28;20422;-70
2022/11/09 02:19:46;;;;;;;2.10;1.10;;;12.00;99.90;;;;;;5098018;28;20918;-71
2022/11/09 02:22:12;;;;;;;2.07;1.00;;;12.00;99.90;;;;;;5087076;28;20223;-71
2022/11/09 02:24:38;;;;;;;6.90;1.17;;;12.00;99.90;;;;;;5091524;28;20177;-71
2022/11/09 02:27:06;;;;;;;4.47;1.50;;;12.00;99.90;;;;;;5090182;28;20863;-71
2022/11/09 02:29:36;;;;;;;2.50;0.90;;;12.00;99.90;;;;;;5097598;28;20180;-71
2022/11/09 02:32:10;;;;;;;2.50;1.27;;;11.90;99.90;;;;;;5097483;28;20417;-71
2022/11/09 02:34:36;;;;;;;2.33;1.00;;;11.70;99.90;;;;;;5085742;28;20439;-71
2022/11/09 02:37:02;;;;;;;5.10;1.77;;;11.70;99.90;;;;;;5093755;28;20418;-71
2022/11/09 02:39:28;;;;;;;3.20;1.30;;;11.60;99.90;;;;;;5090758;28;20549;-71
2022/11/09 02:42:06;;;;;;;2.47;1.17;;;11.50;99.90;;;;;;5091074;28;20172;-71
2022/11/09 02:44:38;;;;;;;2.20;1.00;;;11.50;99.90;;;;;;5097618;28;20443;-71
2022/11/09 02:47:04;;;;;;;2.00;1.10;;;11.40;99.90;;;;;;5089119;28;20513;-71
2022/11/09 02:49:29;;;;;;;8.30;1.47;;;11.50;99.90;;;;;;5098149;28;20552;-71
2022/11/09 02:51:55;;;;;;;4.60;1.23;;;11.40;99.90;;;;;;5097150;28;20180;-71
2022/11/09 02:54:20;;;;;;;2.67;1.30;;;11.40;99.90;;;;;;5097836;28;20644;-71
2022/11/09 02:56:46;;;;;;;2.33;1.17;;;11.30;99.90;;;;;;5097712;28;20666;-71
2022/11/09 02:59:11;;;;;;;2.63;1.60;;;11.20;99.90;;;;;;5087220;28;20213;-71
2022/11/09 03:01:37;;;;;;;3.80;1.60;;;11.20;99.90;;;;;;5091209;28;20189;-71
2022/11/09 03:04:03;;;;;;;4.90;1.47;;;11.20;99.90;;;;;;5084322;28;20196;-71
2022/11/09 03:06:35;;;;;;;2.87;1.43;;;11.10;99.90;;;;;;5091224;28;20180;-72
2022/11/09 03:09:05;;;;;;;3.13;1.30;;;11.20;99.90;;;;;;5094417;28;20577;-72
2022/11/09 03:11:32;;;;;;;2.17;1.10;;;11.00;99.90;;;;;;5093987;28;20426;-72
2022/11/09 03:13:57;;;;;;;2.47;1.67;;;10.90;99.90;;;;;;5093938;28;20426;-72
2022/11/09 03:16:24;;;;;;;3.53;1.63;;;10.80;99.90;;;;;;5094301;28;20958;-72
2022/11/09 03:18:50;;;;;;;2.57;1.50;;;10.70;99.90;;;;;;5082527;28;20623;-72
2022/11/09 03:21:16;;;;;;;2.03;1.27;;;10.60;99.90;;;;;;5080198;28;20505;-71
2022/11/09 03:23:42;;;;;;;3.83;2.43;;;10.60;99.90;;;;;;5093672;28;20489;-72
2022/11/09 03:26:08;;;;;;;4.80;2.03;;;10.50;99.90;;;;;;5093565;28;20840;-72
2022/11/09 03:28:34;;;;;;;3.93;1.40;;;10.40;99.90;;;;;;5093636;28;20184;-72
2022/11/09 03:30:59;;;;;;;3.23;1.70;;;10.40;99.90;;;;;;5094315;28;20425;-73
2022/11/09 03:33:25;;;;;;;6.43;2.00;;;10.30;99.90;;;;;;5081901;28;20279;-73
2022/11/09 03:35:50;;;;;;;2.53;1.27;;;10.30;99.90;;;;;;5090748;28;20566;-73
2022/11/09 03:38:16;;;;;;;2.93;1.97;;;10.20;99.90;;;;;;5082452;28;20178;-73
2022/11/09 03:40:42;;;;;;;3.83;1.83;;;10.20;99.90;;;;;;5073944;28;20193;-73
2022/11/09 03:43:08;;;;;;;32.87;1.97;;;10.20;99.90;;;;;;5084459;28;20318;-73
2022/11/09 03:45:33;;;;;;;1.83;1.00;;;10.10;99.90;;;;;;5088533;28;20184;-73
2022/11/09 03:47:59;;;;;;;4.53;1.80;;;10.10;99.90;;;;;;5093815;28;20196;-73
2022/11/09 03:50:30;;;;;;;4.00;1.90;;;10.00;99.90;;;;;;5093703;28;20188;-73
2022/11/09 03:52:56;;;;;;;3.30;1.47;;;10.00;99.90;;;;;;5081371;28;20595;-73
2022/11/09 03:55:22;;;;;;;5.40;2.27;;;9.90;99.90;;;;;;5084664;28;20462;-73
2022/11/09 03:57:48;;;;;;;2.50;1.23;;;9.90;99.90;;;;;;5082571;28;20430;-73
2022/11/09 04:00:16;;;;;;;2.60;1.50;;;9.90;99.90;;;;;;5092899;28;20544;-74
2022/11/09 04:02:42;;;;;;;3.33;1.60;;;9.90;99.90;;;;;;5093167;28;20184;-74
2022/11/09 04:05:08;;;;;;;4.13;1.57;;;10.00;99.90;;;;;;5092843;28;20460;-74
2022/11/09 04:07:34;;;;;;;3.33;1.73;;;9.90;99.90;;;;;;5093494;28;20710;-74
2022/11/09 04:10:00;;;;;;;1.83;0.97;;;9.90;99.90;;;;;;5093612;28;20418;-74
2022/11/09 04:12:25;;;;;;;1.60;1.00;;;9.90;99.90;;;;;;5089587;28;20188;-73
2022/11/09 04:14:51;;;;;;;3.07;1.63;;;10.00;99.90;;;;;;5082071;28;20194;-73
2022/11/09 04:17:16;;;;;;;3.00;1.60;;;10.00;99.90;;;;;;5094319;28;20189;-74
2022/11/09 04:19:42;;;;;;;2.20;1.10;;;10.00;99.90;;;;;;5094146;28;20195;-74
2022/11/09 04:22:07;;;;;;;2.63;1.77;;;10.00;99.90;;;;;;5093409;28;20184;-73
2022/11/09 04:24:33;;;;;;;1.80;1.17;;;10.10;99.90;;;;;;5092929;28;20250;-74
2022/11/09 04:26:59;;;;;;;6.73;1.67;;;10.00;99.90;;;;;;5094047;28;20593;-73
2022/11/09 04:29:25;;;;;;;4.23;1.40;;;10.10;99.90;;;;;;5092743;28;20181;-74
2022/11/09 04:31:50;;;;;;;2.70;1.47;;;10.00;99.90;;;;;;5093867;28;20214;-74
2022/11/09 04:34:16;;;;;;;6.70;3.10;;;10.00;99.90;;;;;;5080219;28;20235;-74
2022/11/09 04:36:42;;;;;;;4.70;2.93;;;10.00;99.90;;;;;;5093040;28;20219;-74
2022/11/09 04:39:08;;;;;;;6.37;2.77;;;10.00;99.90;;;;;;5089430;28;20423;-74
2022/11/09 04:41:34;;;;;;;4.57;2.50;;;9.90;99.90;;;;;;5084720;28;20276;-74
2022/11/09 04:43:59;;;;;;;5.63;2.80;;;9.90;99.90;;;;;;5093514;28;20192;-74
2022/11/09 04:46:26;;;;;;;2.43;1.53;;;9.80;99.90;;;;;;5093640;28;20230;-74
2022/11/09 04:48:52;;;;;;;6.17;1.73;;;9.80;99.90;;;;;;5080006;28;20184;-74
2022/11/09 04:51:17;;;;;;;4.43;2.53;;;9.80;99.90;;;;;;5080913;28;20443;-74
2022/11/09 04:53:44;;;;;;;5.73;3.07;;;9.80;99.90;;;;;;5091900;28;20196;-74
2022/11/09 04:56:10;;;;;;;8.00;2.80;;;9.70;99.90;;;;;;5088432;28;20200;-74
2022/11/09 04:58:36;;;;;;;4.57;1.77;;;9.70;99.90;;;;;;5079463;28;20446;-74
2022/11/09 05:01:11;;;;;;;7.20;1.80;;;9.70;99.90;;;;;;5088370;28;20473;-74
2022/11/09 05:03:37;;;;;;;3.57;1.67;;;9.70;99.90;;;;;;5079563;28;20497;-74
2022/11/09 05:06:30;;;;;;;4.90;1.70;;;9.70;99.90;;;;;;5092829;28;20453;-74
2022/11/09 05:08:49;;;;;;;3.30;1.73;;;9.60;99.90;;;;;;5082729;28;20438;-74
2022/11/09 05:11:14;;;;;;;3.77;1.83;;;9.60;99.90;;;;;;5079804;28;21008;-75
2022/11/09 05:13:40;;;;;;;4.70;2.57;;;9.60;99.90;;;;;;5083317;28;20275;-75
2022/11/09 05:16:06;;;;;;;3.13;1.80;;;9.50;99.90;;;;;;5086372;28;20209;-75
2022/11/09 05:18:32;;;;;;;3.23;2.00;;;9.50;99.90;;;;;;5082587;28;20192;-75
2022/11/09 05:21:01;;;;;;;3.20;1.90;;;9.50;99.90;;;;;;5079037;28;20215;-75
2022/11/09 05:26:11;;;;;;;3.17;1.83;;;9.50;99.90;;;;;;5093268;28;20551;-75
2022/11/09 05:28:37;;;;;;;3.30;1.77;;;9.50;99.90;;;;;;5081661;28;20521;-76
2022/11/09 05:31:03;;;;;;;7.60;2.30;;;9.50;99.90;;;;;;5073692;28;20255;-77
2022/11/09 05:33:29;;;;;;;3.97;2.07;;;9.40;99.90;;;;;;5085086;28;20204;-76
2022/11/09 05:35:56;;;;;;;2.10;1.53;;;9.50;99.90;;;;;;5079216;28;20577;-76
2022/11/09 05:38:23;;;;;;;3.77;1.70;;;9.50;99.90;;;;;;5081033;28;20430;-76
2022/11/09 05:40:49;;;;;;;4.60;1.33;;;9.60;99.90;;;;;;5091366;28;20414;-73
2022/11/09 05:43:15;;;;;;;4.93;1.90;;;9.70;99.90;;;;;;5091333;28;20415;-73
2022/11/09 05:45:41;;;;;;;2.33;1.43;;;9.50;99.90;;;;;;5091486;28;20418;-73
2022/11/09 05:48:07;;;;;;;2.43;1.73;;;9.50;99.90;;;;;;5091841;28;20192;-71
2022/11/09 05:50:33;;;;;;;3.67;1.60;;;9.50;99.90;;;;;;5091482;28;20414;-72
2022/11/09 05:53:00;;;;;;;3.43;1.57;;;9.60;99.90;;;;;;5091919;28;20442;-77
2022/11/09 05:55:26;;;;;;;4.07;2.10;;;9.60;99.90;;;;;;5086993;28;20459;-76
2022/11/09 05:57:51;;;;;;;3.00;2.00;;;9.60;99.90;;;;;;5093025;28;20538;-77
2022/11/09 06:00:17;;;;;;;3.00;1.20;;;9.60;99.90;;;;;;5079173;28;20218;-77
2022/11/09 06:02:43;;;;;;;8.00;1.67;;;9.60;99.90;;;;;;5092517;28;20221;-76
2022/11/09 06:05:08;;;;;;;2.70;1.77;;;9.60;99.90;;;;;;5078754;28;20296;-77
2022/11/09 06:07:34;;;;;;;2.60;1.13;;;9.60;99.90;;;;;;5088020;28;20188;-77
2022/11/09 06:10:00;;;;;;;3.50;1.87;;;9.70;99.90;;;;;;5089383;28;20176;-77
2022/11/09 06:12:25;;;;;;;3.47;1.77;;;9.70;99.90;;;;;;5092734;28;20184;-77
2022/11/09 06:14:51;;;;;;;4.33;2.10;;;9.70;99.90;;;;;;5086765;28;20220;-77
2022/11/09 06:17:17;;;;;;;2.67;1.90;;;9.80;99.90;;;;;;5088347;28;20173;-77
2022/11/09 06:19:42;;;;;;;8.37;2.17;;;9.80;99.90;;;;;;5082319;28;20184;-77
2022/11/09 06:22:08;;;;;;;3.90;2.23;;;9.70;99.90;;;;;;5084309;28;20247;-77
2022/11/09 06:24:34;;;;;;;4.50;2.10;;;9.70;99.90;;;;;;5079357;28;20177;-77
2022/11/09 06:27:00;;;;;;;3.93;2.20;;;9.70;99.90;;;;;;5092936;28;20177;-77
2022/11/09 06:29:25;;;;;;;3.93;2.23;;;9.60;99.90;;;;;;5087219;28;20189;-77
2022/11/09 06:31:51;;;;;;;3.30;1.53;;;9.60;99.90;;;;;;5072055;28;20185;-76
2022/11/09 06:34:20;;;;;;;8.03;2.33;;;9.60;99.90;;;;;;5091459;28;20204;-75
2022/11/09 06:36:45;;;;;;;4.03;2.67;;;9.60;99.90;;;;;;5081712;28;20239;-77
2022/11/09 06:39:11;;;;;;;10.63;2.70;;;9.60;99.90;;;;;;5095406;28;20450;-76
2022/11/09 06:41:37;;;;;;;3.77;1.93;;;9.60;99.90;;;;;;5084369;28;20181;-77
2022/11/09 06:44:04;;;;;;;7.00;2.50;;;9.60;99.90;;;;;;5094384;28;20644;-77
2022/11/09 06:46:30;;;;;;;4.73;2.30;;;9.60;99.90;;;;;;5080492;28;20177;-77
2022/11/09 06:48:56;;;;;;;3.60;1.80;;;9.60;99.90;;;;;;5096626;28;20418;-78
2022/11/09 06:51:22;;;;;;;2.27;1.37;;;9.60;99.90;;;;;;5096647;28;20853;-76
2022/11/09 06:53:48;;;;;;;2.57;1.93;;;9.60;99.90;;;;;;5087037;28;20578;-78
2022/11/09 06:56:13;;;;;;;2.90;2.10;;;9.60;99.90;;;;;;5089179;28;20450;-78
2022/11/09 06:58:39;;;;;;;4.03;2.20;;;9.70;99.90;;;;;;5097313;28;20204;-78
2022/11/09 07:01:14;;;;;;;3.83;1.70;;;9.70;99.90;;;;;;5097472;28;20177;-78
2022/11/09 07:03:39;;;;;;;4.50;2.37;;;9.70;99.90;;;;;;5078587;28;20224;-76
2022/11/09 07:06:07;;;;;;;6.87;3.33;;;9.70;99.90;;;;;;5073381;28;20507;-76
2022/11/09 07:08:33;;;;;;;8.23;2.20;;;9.70;99.90;;;;;;5087258;28;20181;-76
2022/11/09 07:11:08;;;;;;;3.00;1.83;;;9.80;99.90;;;;;;5103040;28;20413;-77
2022/11/09 07:13:33;;;;;;;3.73;2.17;;;9.90;99.90;;;;;;5102797;28;20395;-76
2022/11/09 07:15:59;;;;;;;3.10;1.90;;;9.90;99.90;;;;;;5088630;28;20950;-75
2022/11/09 07:18:25;;;;;;;8.13;1.80;;;9.90;99.90;;;;;;5084176;28;20169;-76
2022/11/09 07:20:50;;;;;;;11.17;2.80;;;10.10;99.90;;;;;;5094846;28;20440;-74
2022/11/09 07:23:16;;;;;;;4.87;2.33;;;10.10;99.90;;;;;;5087735;28;20189;-73
2022/11/09 07:25:42;;;;;;;5.40;2.20;;;10.10;99.90;;;;;;5094943;28;20188;-74
2022/11/09 07:28:10;;;;;;;6.30;2.30;;;10.10;99.90;;;;;;5094819;28;20188;-74
2022/11/09 07:30:37;;;;;;;10.43;2.20;;;10.10;99.90;;;;;;5090136;28;20189;-75
2022/11/09 07:33:08;;;;;;;7.50;2.47;;;10.00;99.90;;;;;;5095362;28;20465;-75
2022/11/09 07:35:34;;;;;;;2.80;1.47;;;10.10;99.90;;;;;;5081936;28;20451;-75
2022/11/09 07:38:00;;;;;;;3.30;1.53;;;10.10;99.90;;;;;;5091297;28;20744;-74
2022/11/09 07:40:26;;;;;;;3.87;2.17;;;10.10;99.90;;;;;;5090100;28;20203;-76
2022/11/09 07:42:51;;;;;;;2.93;1.87;;;10.20;99.90;;;;;;5074844;28;20192;-74
2022/11/09 07:45:17;;;;;;;5.77;2.00;;;10.20;99.90;;;;;;5096676;28;20655;-74
2022/11/09 07:47:42;;;;;;;4.80;2.23;;;10.30;99.90;;;;;;5090934;28;20181;-75
2022/11/09 07:50:08;;;;;;;6.63;2.23;;;10.20;99.90;;;;;;5087943;28;20193;-75
2022/11/09 07:52:34;;;;;;;3.20;1.53;;;10.20;99.90;;;;;;5112469;28;20176;-75
2022/11/09 07:54:59;;;;;;;3.80;2.00;;;10.30;99.90;;;;;;5115625;28;20422;-75
2022/11/09 07:57:25;;;;;;;2.93;1.53;;;10.30;99.90;;;;;;5096635;28;20184;-75
2022/11/09 07:59:52;;;;;;;3.97;2.00;;;10.30;99.90;;;;;;5109768;28;20205;-76
2022/11/09 08:02:18;;;;;;;2.60;1.80;;;10.30;99.90;;;;;;5119994;28;20175;-75
2022/11/09 08:04:43;;;;;;;5.37;2.37;;;10.30;99.90;;;;;;5119433;28;20390;-75
2022/11/09 08:07:09;;;;;;;2.10;1.27;;;10.30;99.90;;;;;;5099364;28;20181;-75
2022/11/09 08:09:34;;;;;;;2.67;1.97;;;10.30;99.90;;;;;;5096613;28;20176;-76
2022/11/09 08:12:00;;;;;;;2.57;1.40;;;10.30;99.90;;;;;;5095694;28;20180;-75
2022/11/09 08:14:26;;;;;;;2.70;1.40;;;10.30;99.90;;;;;;5094657;28;20188;-75
2022/11/09 08:16:51;;;;;;;5.33;2.20;;;10.30;99.90;;;;;;5094571;28;20220;-76
2022/11/09 08:19:17;;;;;;;2.80;1.53;;;10.30;99.90;;;;;;5092280;28;20192;-76
2022/11/09 08:21:42;;;;;;;3.03;1.60;;;10.40;99.90;;;;;;5082498;28;20191;-76
2022/11/09 08:24:08;;;;;;;2.77;1.67;;;10.40;99.90;;;;;;5080587;28;20323;-76
2022/11/09 08:26:34;;;;;;;3.93;1.57;;;10.50;99.90;;;;;;5094443;28;20189;-76
2022/11/09 08:28:59;;;;;;;3.50;1.60;;;10.50;99.90;;;;;;5092324;28;20264;-76
2022/11/09 08:31:25;;;;;;;3.57;1.40;;;10.50;99.90;;;;;;5062685;28;20173;-75
2022/11/09 08:33:51;;;;;;;1.70;1.03;;;10.50;99.90;;;;;;5087770;28;20515;-75
2022/11/09 08:36:17;;;;;;;3.40;1.13;;;10.40;99.90;;;;;;5084938;28;20231;-74
2022/11/09 08:38:44;;;;;;;3.17;1.60;;;10.50;99.90;;;;;;5087232;28;20195;-74
2022/11/09 08:41:12;;;;;;;3.23;0.80;;;10.60;99.90;;;;;;5081693;28;20414;-75
2022/11/09 08:43:38;;;;;;;1.80;1.10;;;10.60;99.90;;;;;;5093157;28;20425;-75
2022/11/09 08:46:04;;;;;;;1.90;0.80;;;10.50;99.90;;;;;;5084908;28;20415;-75
2022/11/09 08:48:29;;;;;;;1.90;0.90;;;10.60;99.90;;;;;;5089252;28;20275;-77
2022/11/09 08:50:57;;;;;;;1.77;0.80;;;10.60;99.90;;;;;;5093509;28;20657;-76
2022/11/09 08:53:25;;;;;;;2.60;1.00;;;10.70;99.90;;;;;;5093372;28;20185;-78
2022/11/09 08:55:51;;;;;;;1.27;0.60;;;10.70;99.90;;;;;;5075661;28;20516;-77
2022/11/09 08:58:17;;;;;;;1.80;0.70;;;10.80;99.90;;;;;;5079370;28;21250;-77
2022/11/09 09:00:43;;;;;;;1.40;0.63;;;10.90;99.90;;;;;;5083950;28;20447;-77
2022/11/09 09:03:09;;;;;;;1.30;0.60;;;10.90;99.90;;;;;;5089461;28;20481;-77
2022/11/09 09:05:35;;;;;;;1.20;0.50;;;11.00;99.90;;;;;;5093762;28;20187;-77
2022/11/09 09:08:03;;;;;;;1.73;0.60;;;11.10;99.90;;;;;;5093639;28;20216;-77
2022/11/09 09:10:28;;;;;;;1.20;0.50;;;11.10;99.90;;;;;;5093747;28;21028;-78
2022/11/09 09:12:54;;;;;;;2.07;1.03;;;11.20;99.90;;;;;;5086693;28;20511;-77
2022/11/09 09:15:21;;;;;;;1.60;1.00;;;11.20;99.90;;;;;;5077790;28;20204;-78
2022/11/09 09:17:47;;;;;;;2.47;0.80;;;11.20;99.90;;;;;;5089684;28;20195;-78
2022/11/09 09:20:13;;;;;;;1.43;0.70;;;11.30;99.90;;;;;;5088956;28;20830;-79
2022/11/09 09:22:39;;;;;;;3.33;1.10;;;11.40;99.90;;;;;;5085337;28;20938;-78
2022/11/09 09:25:05;;;;;;;1.30;0.70;;;11.50;99.90;;;;;;5089086;28;20176;-78
2022/11/09 09:27:30;;;;;;;1.90;1.00;;;11.60;99.90;;;;;;5079287;28;20545;-78
2022/11/09 09:29:57;;;;;;;2.13;0.80;;;11.60;99.90;;;;;;5092872;28;20552;-78
2022/11/09 09:32:23;;;;;;;2.30;0.90;;;11.70;99.90;;;;;;5092887;28;20224;-78
2022/11/09 09:34:48;;;;;;;1.87;0.97;;;11.80;99.90;;;;;;5092708;28;20438;-77
2022/11/09 09:37:16;;;;;;;1.53;0.93;;;12.00;99.90;;;;;;5092627;28;20467;-77
2022/11/09 09:39:41;;;;;;;3.50;1.07;;;12.10;99.90;;;;;;5092950;28;20175;-77
2022/11/09 09:42:14;;;;;;;1.70;0.80;;;12.20;99.90;;;;;;5092651;28;20416;-77
2022/11/09 09:44:42;;;;;;;1.93;1.20;;;12.30;99.90;;;;;;5093055;28;20160;-77
2022/11/09 09:47:18;;;;;;;1.83;1.27;;;12.50;99.90;;;;;;5079183;28;20421;-76
2022/11/09 09:49:54;;;;;;;4.80;1.20;;;12.50;99.90;;;;;;5093087;28;20432;-76
2022/11/09 09:52:33;;;;;;;1.93;1.07;;;12.50;99.90;;;;;;5078951;28;20449;-77
2022/11/09 09:55:11;;;;;;;5.23;2.00;;;12.50;99.90;;;;;;5085344;28;20410;-77
2022/11/09 09:57:38;;;;;;;4.43;1.10;;;12.70;99.90;;;;;;5076136;28;20477;-78
2022/11/09 10:00:14;;;;;;;2.77;1.40;;;12.70;99.90;;;;;;5092167;28;20414;-76
2022/11/09 10:02:40;;;;;;;2.33;1.10;;;12.70;99.90;;;;;;5091809;28;20497;-77
2022/11/09 10:05:08;;;;;;;2.53;1.23;;;12.70;99.90;;;;;;5091969;28;20502;-77
2022/11/09 10:07:40;;;;;;;2.90;1.30;;;12.70;99.90;;;;;;5091493;28;20248;-76
2022/11/09 10:10:45;;;;;;;2.30;0.93;;;12.70;99.90;;;;;;5091109;28;20410;-76
2022/11/09 10:13:35;;;;;;;3.40;1.27;;;12.80;99.90;;;;;;5087611;28;20442;-76
2022/11/09 10:16:32;;;;;;;1.60;0.90;;;12.80;99.90;;;;;;5094181;28;20497;-76
2022/11/09 10:19:24;;;;;;;3.00;1.37;;;12.90;99.90;;;;;;5044292;28;20496;-76
2022/11/09 10:21:59;;;;;;;2.37;1.40;;;13.00;99.90;;;;;;5076427;28;20457;-76
2022/11/09 10:24:53;;;;;;;2.17;0.90;;;13.00;99.90;;;;;;5090250;28;20498;-75
2022/11/09 10:27:51;;;;;;;3.73;1.50;;;13.00;99.90;;;;;;5090314;28;20413;-75
2022/11/09 10:30:19;;;;;;;2.93;1.30;;;13.10;99.90;;;;;;5079152;28;20415;-75
2022/11/09 10:32:50;;;;;;;1.60;0.83;;;13.20;99.90;;;;;;5090070;28;20418;-75
2022/11/09 10:35:23;;;;;;;4.50;1.70;;;13.20;99.90;;;;;;5088990;28;20465;-75
2022/11/09 10:37:51;;;;;;;4.23;1.30;;;13.30;99.90;;;;;;5094813;28;20403;-76
2022/11/09 10:40:25;;;;;;;2.20;1.27;;;13.30;99.90;;;;;;5081827;28;20494;-75
2022/11/09 10:42:59;;;;;;;2.60;1.17;;;13.30;99.90;;;;;;5095616;28;20484;-75
2022/11/09 10:45:30;;;;;;;3.50;1.33;;;13.40;99.90;;;;;;5081956;28;20415;-75
2022/11/09 10:47:56;;;;;;;1.67;1.03;;;13.40;99.90;;;;;;5090752;28;20511;-75
2022/11/09 10:50:40;;;;;;;2.50;1.10;;;13.40;99.90;;;;;;5095492;28;20890;-75
2022/11/09 10:53:08;;;;;;;1.80;0.93;;;13.50;99.90;;;;;;5094563;28;20503;-75
2022/11/09 10:55:35;;;;;;;5.67;1.50;;;13.50;99.90;;;;;;5082174;28;20459;-76
2022/11/09 10:58:34;;;;;;;2.33;1.10;;;13.50;99.90;;;;;;5085243;28;20414;-75
2022/11/09 11:01:01;;;;;;;3.13;1.10;;;13.50;99.90;;;;;;5088502;28;20418;-75
2022/11/09 11:03:32;;;;;;;2.17;0.87;;;13.50;99.90;;;;;;5094140;28;20815;-75
2022/11/09 11:06:05;;;;;;;2.60;1.10;;;13.40;99.90;;;;;;5094477;28;20426;-75
2022/11/09 11:08:39;;;;;;;2.37;1.23;;;13.30;99.90;;;;;;5093886;28;20411;-75
2022/11/09 11:11:16;;;;;;;1.53;0.80;;;13.30;99.90;;;;;;5090637;28;20422;-75
2022/11/09 11:13:42;;;;;;;2.93;1.20;;;13.20;99.90;;;;;;5092935;28;20937;-75
2022/11/09 11:16:24;;;;;;;2.63;1.20;;;13.20;99.90;;;;;;5093183;28;20486;-74
2022/11/09 11:18:50;;;;;;;2.13;1.17;;;13.20;99.90;;;;;;5082203;28;20414;-74
2022/11/09 11:21:18;;;;;;;2.40;1.10;;;13.20;99.90;;;;;;5089694;28;20411;-77
2022/11/09 11:23:44;;;;;;;2.37;1.20;;;13.20;99.90;;;;;;5081380;28;20191;-75
2022/11/09 11:26:23;;;;;;;1.67;0.80;;;13.20;99.90;;;;;;5080442;28;20446;-75
2022/11/09 11:28:55;;;;;;;2.13;1.20;;;13.30;99.90;;;;;;5093388;28;20183;-75
2022/11/09 11:31:21;;;;;;;2.90;1.47;;;13.40;99.90;;;;;;5093712;28;20417;-75
2022/11/09 11:33:47;;;;;;;4.77;1.53;;;13.30;99.90;;;;;;5082135;28;20434;-75
2022/11/09 11:36:24;;;;;;;3.30;1.83;;;13.20;99.90;;;;;;5090265;28;20545;-74
2022/11/09 11:39:36;;;;;;;1.70;1.20;;;13.20;99.90;;;;;;5093459;28;20889;-75
2022/11/09 11:42:29;;;;;;;4.33;1.17;;;13.20;99.90;;;;;;5090560;28;20525;-75
2022/11/09 11:45:16;;;;;;;2.33;1.40;;;13.20;99.90;;;;;;5085878;28;20418;-72
2022/11/09 11:47:56;;;;;;;2.23;1.30;;;13.20;99.90;;;;;;5081605;28;20422;-73
2022/11/09 11:50:49;;;;;;;6.10;2.20;;;13.20;99.90;;;;;;5086825;28;20457;-73
2022/11/09 11:53:33;;;;;;;3.23;1.20;;;13.40;99.90;;;;;;5086957;28;20433;-72
2022/11/09 11:55:58;;;;;;;1.87;1.00;;;13.40;99.90;;;;;;5086019;28;20468;-73
2022/11/09 11:58:59;;;;;;;3.37;1.20;;;13.40;99.90;;;;;;5083618;28;20432;-72
2022/11/09 12:01:34;;;;;;;1.90;0.80;;;13.40;99.90;;;;;;5077653;28;20173;-72
2022/11/09 12:04:01;;;;;;;2.10;1.17;;;13.60;99.90;;;;;;5092980;28;20418;-72
2022/11/09 12:06:48;;;;;;;2.10;1.27;;;13.70;99.90;;;;;;5092339;28;20415;-72
2022/11/09 12:09:35;;;;;;;1.90;1.10;;;13.70;99.90;;;;;;5092972;28;20418;-72
2022/11/09 12:12:09;;;;;;;2.23;1.03;;;13.90;99.90;;;;;;5081173;28;20515;-72
2022/11/09 12:14:45;;;;;;;5.50;1.50;;;14.00;99.90;;;;;;5089200;28;20506;-72
2022/11/09 12:17:41;;;;;;;3.43;1.40;;;14.10;99.90;;;;;;5072546;28;20458;-72
2022/11/09 12:20:52;;;;;;;1.70;0.90;;;14.20;99.90;;;;;;5072813;28;20403;-73
2022/11/09 12:23:41;;;;;;;2.17;1.00;;;14.20;99.90;;;;;;5041749;28;20804;-73
2022/11/09 12:26:25;;;;;;;4.37;1.33;;;14.10;99.90;;;;;;5092712;28;20422;-73
2022/11/09 12:29:27;;;;;;;1.80;0.90;;;14.10;99.90;;;;;;5091979;28;20415;-73
2022/11/09 12:32:19;;;;;;;3.90;1.10;;;14.10;99.90;;;;;;5076680;28;20437;-73
2022/11/09 12:35:01;;;;;;;1.87;0.87;;;14.10;99.90;;;;;;5071996;28;21024;-73
2022/11/09 12:37:34;;;;;;;2.40;1.13;;;14.20;99.90;;;;;;5088354;28;20969;-73
2022/11/09 12:40:25;;;;;;;1.67;0.80;;;14.20;99.90;;;;;;5091925;28;20765;-73
2022/11/09 12:42:57;;;;;;;1.47;0.73;;;14.20;99.90;;;;;;5087676;28;20731;-71
2022/11/09 12:45:36;;;;;;;2.13;1.10;;;14.30;99.90;;;;;;5088562;28;20760;-74
2022/11/09 12:48:19;;;;;;;1.50;0.80;;;14.30;99.90;;;;;;5076885;28;20430;-73
2022/11/09 12:50:45;;;;;;;1.70;0.70;;;14.30;99.90;;;;;;5071772;28;20407;-73
2022/11/09 12:53:11;;;;;;;1.50;0.87;;;14.30;99.90;;;;;;5085080;28;20810;-72
2022/11/09 12:55:50;;;;;;;4.37;1.40;;;14.20;99.90;;;;;;5091826;28;20196;-73
2022/11/09 12:58:25;;;;;;;1.60;0.90;;;14.20;99.90;;;;;;5088988;28;20442;-73
2022/11/09 13:00:56;;;;;;;1.30;0.77;;;14.10;99.90;;;;;;5071655;28;20743;-73
2022/11/09 13:03:31;;;;;;;1.90;0.73;;;14.10;99.90;;;;;;5071211;28;20427;-73